Decoded Metar for OIFM (ESFAHAN in IRAN) (IATA:N/A) | Meteo·Mobile Aviation Weather
aviador You're here:

OIFM Decoded Metar

ESFAHAN in IRAN
Report Time2019-01-18 12:00:00
UTC Time2019-01-18 12:29:43
Flight Rules vfr VFR
Wind050° at 06 kt
W.Decomp.*RWY 08: 5.1 kt HW 3.2 kt LCW
W.Rank050° ranks 23
Current wind is below 050° avg. (7.7)
Visibility9999 m
Phenomena:N/A
Clouds:N/A
Expected CloudBase > 6,000 ft AGL from Temp-Dew spread
CeilingNone
Temp07°C (ISA +2)
Dew Point-8°C (34% RH)
AAT2.0°C
QNH1013 hPa
Density Alt5,354 ft
Elevation5,059 ft
Report Wrong Elevation
Raw Report
METAR OIFM 181200Z 05006KT CAVOK 07/M08 Q1013 A2993 NOSIG=

Extra information for OIFM:More info

Metar Taf Metar & Taf Last 4 Metars F.Rules Stats Wind Profile Meteogram Temp Stats Airport Information Weather charts Add Link Nearby VenuesMetar ALERT Operation Metar Decoded Social comments